createdAt,value
2018-04-23T00:02:15.093Z,63.94
2018-04-23T00:04:44.351Z,62.63
2018-04-23T00:07:12.867Z,62.81
2018-04-23T00:09:41.155Z,63.27
2018-04-23T00:12:09.441Z,63.51
2018-04-23T00:14:37.770Z,63.72
2018-04-23T00:17:06.465Z,63.77
2018-04-23T00:19:35.047Z,63.82
2018-04-23T00:22:04.343Z,63.55
2018-04-23T00:24:32.634Z,63.19
2018-04-23T00:27:01.059Z,63.81
2018-04-23T00:29:29.375Z,64.43
2018-04-23T00:31:57.667Z,63.98
2018-04-23T00:34:26.025Z,64.56
2018-04-23T00:36:54.317Z,63.70
2018-04-23T00:39:22.612Z,64.42
2018-04-23T00:41:51.470Z,65.14
2018-04-23T00:44:19.764Z,64.51
2018-04-23T00:46:49.251Z,65.14
2018-04-23T00:49:17.541Z,63.87
2018-04-23T00:51:46.009Z,63.77
2018-04-23T00:54:14.420Z,65.30
2018-04-23T00:56:42.699Z,63.32
2018-04-23T00:59:11.008Z,63.18
2018-04-23T01:01:39.291Z,64.08
2018-04-23T01:04:08.435Z,64.49
2018-04-23T01:06:37.210Z,64.63
2018-04-23T01:09:06.451Z,65.50
2018-04-23T01:11:35.447Z,67.35
2018-04-23T01:14:03.777Z,67.64
2018-04-23T01:16:32.063Z,65.11
2018-04-23T01:19:00.351Z,66.93
2018-04-23T01:21:28.683Z,66.90
2018-04-23T01:23:56.973Z,66.57
2018-04-23T01:26:25.342Z,65.75
2018-04-23T01:28:53.654Z,65.04
2018-04-23T01:31:22.850Z,65.12
2018-04-23T01:33:51.163Z,64.05
2018-04-23T01:36:19.451Z,63.68
2018-04-23T01:38:48.327Z,63.34
2018-04-23T01:41:16.610Z,66.56
2018-04-23T01:43:45.492Z,64.68
2018-04-23T01:46:14.479Z,64.50
2018-04-23T01:48:42.766Z,65.33
2018-04-23T01:51:12.127Z,66.64
2018-04-23T01:53:40.417Z,66.68
2018-04-23T01:56:08.740Z,66.69
2018-04-23T01:58:37.028Z,67.94
2018-04-23T02:01:05.549Z,69.23
2018-04-23T02:03:35.460Z,70.05
2018-04-23T02:06:04.112Z,70.95
2018-04-23T02:08:32.946Z,70.92
2018-04-23T02:11:02.367Z,69.94
2018-04-23T02:13:31.783Z,70.27
2018-04-23T02:16:00.806Z,69.23
2018-04-23T02:18:29.628Z,69.21
2018-04-23T02:20:58.066Z,70.41
2018-04-23T02:23:27.252Z,72.48
2018-04-23T02:25:55.877Z,71.57
2018-04-23T02:28:25.620Z,71.88
2018-04-23T02:30:54.023Z,70.39
2018-04-23T02:33:22.427Z,70.43
2018-04-23T02:35:50.763Z,70.49
2018-04-23T02:38:19.818Z,69.69
2018-04-23T02:40:48.107Z,69.67
2018-04-23T02:43:16.485Z,71.20
2018-04-23T02:45:45.183Z,70.48
2018-04-23T02:48:14.043Z,69.46
2018-04-23T02:50:42.416Z,70.26
2018-04-23T02:53:10.703Z,69.32
2018-04-23T02:55:39.036Z,69.74
2018-04-23T02:58:07.431Z,68.25
2018-04-23T03:00:35.724Z,67.75
2018-04-23T03:03:04.843Z,68.65
2018-04-23T03:05:33.973Z,68.99
2018-04-23T03:08:02.263Z,68.16
2018-04-23T03:10:30.916Z,68.31
2018-04-23T03:12:59.239Z,69.13
2018-04-23T03:15:27.532Z,68.85
2018-04-23T03:17:55.828Z,68.85
2018-04-23T03:20:24.503Z,70.33
2018-04-23T03:22:53.547Z,69.24
2018-04-23T03:25:22.078Z,69.20
2018-04-23T03:27:50.411Z,69.62
2018-04-23T03:30:19.743Z,68.66
2018-04-23T03:32:48.039Z,70.16
2018-04-23T03:35:16.371Z,70.31
2018-04-23T03:37:44.699Z,72.47
2018-04-23T03:40:12.992Z,71.80
2018-04-23T03:42:41.307Z,72.86
2018-04-23T03:45:10.396Z,71.57
2018-04-23T03:47:40.083Z,69.79
2018-04-23T03:50:08.444Z,70.91
2018-04-23T03:52:36.789Z,71.98
2018-04-23T03:55:05.103Z,71.13
2018-04-23T03:57:33.382Z,71.47
2018-04-23T04:00:01.767Z,71.89
2018-04-23T04:02:30.200Z,73.60
2018-04-23T04:04:58.500Z,73.18
2018-04-23T04:07:26.787Z,73.88
2018-04-23T04:09:55.123Z,74.02
2018-04-23T04:12:40.963Z,74.50
2018-04-23T04:15:26.772Z,74.19
2018-04-23T04:31:43.972Z,72.08
2018-04-23T04:34:12.898Z,74.43
2018-04-23T04:36:41.732Z,71.53
2018-04-23T04:39:10.079Z,71.44
2018-04-23T04:41:38.379Z,71.58
2018-04-23T04:44:06.711Z,72.35
2018-04-23T04:46:35.168Z,72.60
2018-04-23T04:49:03.455Z,72.66
2018-04-23T04:51:31.923Z,72.59
2018-04-23T04:54:00.259Z,72.42
2018-04-23T04:56:28.602Z,73.38
2018-04-23T04:58:56.890Z,72.82
2018-04-23T05:01:25.890Z,72.39
2018-04-23T05:03:54.185Z,72.00
2018-04-23T05:06:22.663Z,70.73
2018-04-23T05:08:51.750Z,71.01
2018-04-23T05:11:21.316Z,71.17
2018-04-23T05:13:49.647Z,70.82
2018-04-23T05:16:17.973Z,71.15
2018-04-23T05:18:46.258Z,70.76
2018-04-23T05:21:15.036Z,70.77
2018-04-23T05:23:43.386Z,70.80
2018-04-23T05:26:12.530Z,72.09
2018-04-23T05:28:41.651Z,71.79
2018-04-23T05:31:10.708Z,71.71
2018-04-23T05:33:38.995Z,70.65
2018-04-23T05:36:07.646Z,69.01
2018-04-23T05:38:35.931Z,67.49
2018-04-23T05:41:04.506Z,65.89
2018-04-23T05:43:33.827Z,65.44
2018-04-23T05:46:02.172Z,63.66
2018-04-23T05:48:30.531Z,62.40
2018-04-23T05:50:59.583Z,60.31
2018-04-23T05:53:27.911Z,57.67
2018-04-23T05:55:56.203Z,55.87
2018-04-23T05:58:24.499Z,54.75
2018-04-23T06:00:52.814Z,54.35
2018-04-23T06:03:21.102Z,53.51
2018-04-23T06:05:49.390Z,53.14
2018-04-23T06:08:17.728Z,51.63
2018-04-23T06:10:46.031Z,48.82
2018-04-23T06:13:15.095Z,45.98
2018-04-23T06:15:43.416Z,45.98
2018-04-23T06:18:12.471Z,47.11
2018-04-23T06:20:40.796Z,47.11
2018-04-23T06:23:09.086Z,48.94
2018-04-23T06:25:37.373Z,49.33
2018-04-23T06:28:05.784Z,49.71
2018-04-23T06:30:34.083Z,49.88
2018-04-23T06:33:02.887Z,49.49
2018-04-23T06:35:31.934Z,50.26
2018-04-23T06:38:00.220Z,50.26
2018-04-23T06:40:28.506Z,49.94
2018-04-23T06:42:56.843Z,49.51
2018-04-23T06:45:25.167Z,48.94
2018-04-23T06:47:53.504Z,48.03
2018-04-23T06:50:21.947Z,46.79
2018-04-23T06:52:51.045Z,46.53
2018-04-23T06:55:20.216Z,45.89
2018-04-23T06:57:49.007Z,45.23
2018-04-23T07:00:17.526Z,44.89
2018-04-23T07:02:46.377Z,45.66
2018-04-23T07:05:14.804Z,45.36
2018-04-23T07:07:43.259Z,45.35
2018-04-23T07:10:11.556Z,46.83
2018-04-23T07:12:39.939Z,46.00
2018-04-23T07:15:08.667Z,45.85
2018-04-23T07:17:37.500Z,45.58
2018-04-23T07:20:05.795Z,44.19
2018-04-23T07:22:34.136Z,43.77
2018-04-23T07:25:02.427Z,43.75
2018-04-23T07:27:31.088Z,43.99
2018-04-23T07:29:59.423Z,44.16
2018-04-23T07:32:27.715Z,44.68
2018-04-23T07:34:56.008Z,44.64
2018-04-23T07:37:24.342Z,44.67
2018-04-23T07:39:53.661Z,44.22
2018-04-23T07:42:22.003Z,44.90
2018-04-23T07:44:50.358Z,46.77
2018-04-23T07:47:18.648Z,46.15
2018-04-23T07:49:47.007Z,44.59
2018-04-23T07:52:15.294Z,42.25
2018-04-23T07:54:43.591Z,39.74
2018-04-23T07:57:11.928Z,38.58
2018-04-23T07:59:42.368Z,38.73
2018-04-23T08:02:10.835Z,39.39
2018-04-23T08:04:39.167Z,36.45
2018-04-23T08:07:07.460Z,35.15
2018-04-23T08:09:35.752Z,32.91
2018-04-23T08:12:04.079Z,32.80
2018-04-23T08:14:32.366Z,31.70
2018-04-23T08:17:00.421Z,31.34
2018-04-23T08:19:28.771Z,34.70
2018-04-23T08:21:57.061Z,36.97
2018-04-23T08:24:25.640Z,36.53
2018-04-23T08:26:54.164Z,39.01
2018-04-23T08:29:23.216Z,39.45
2018-04-23T08:31:51.578Z,41.20
2018-04-23T08:34:20.379Z,43.28
2018-04-23T08:36:49.200Z,45.46
2018-04-23T08:39:17.503Z,47.21
2018-04-23T08:41:45.835Z,48.17
2018-04-23T08:44:15.231Z,49.13
2018-04-23T08:46:43.518Z,49.89
2018-04-23T08:49:11.808Z,51.08
2018-04-23T08:51:40.135Z,51.76
2018-04-23T08:54:08.412Z,53.74
2018-04-23T08:56:36.699Z,57.09
2018-04-23T08:59:05.047Z,56.46
2018-04-23T09:01:33.420Z,57.89
2018-04-23T09:04:01.635Z,61.98
2018-04-23T09:06:29.977Z,60.35
2018-04-23T09:08:58.620Z,59.19
2018-04-23T09:11:26.672Z,59.19
2018-04-23T09:13:55.575Z,58.55
2018-04-23T09:16:23.990Z,57.43
2018-04-23T09:18:53.035Z,57.39
2018-04-23T09:21:21.364Z,57.65
2018-04-23T09:23:50.417Z,56.55
2018-04-23T09:26:18.707Z,55.56
2018-04-23T09:28:47.483Z,54.28
2018-04-23T09:31:15.779Z,53.84
2018-04-23T09:33:44.243Z,53.98
2018-04-23T09:36:12.566Z,55.92
2018-04-23T09:38:40.852Z,56.94
2018-04-23T09:41:09.144Z,58.75
2018-04-23T09:43:37.467Z,61.00
2018-04-23T09:46:05.750Z,61.33
2018-04-23T09:48:34.027Z,62.47
2018-04-23T09:51:02.463Z,61.90
2018-04-23T09:53:31.169Z,59.39
2018-04-23T09:55:59.459Z,58.21
2018-04-23T09:58:27.787Z,57.39
2018-04-23T10:00:56.124Z,56.73
2018-04-23T10:03:25.421Z,54.33
2018-04-23T10:05:54.979Z,50.63
2018-04-23T10:08:23.955Z,48.72
2018-04-23T10:10:52.386Z,44.93
2018-04-23T10:13:20.763Z,44.27
2018-04-23T10:15:49.095Z,44.32
2018-04-23T10:18:17.374Z,45.91
2018-04-23T10:20:45.739Z,47.88
2018-04-23T10:23:14.070Z,54.02
2018-04-23T10:25:42.352Z,57.85
2018-04-23T10:28:11.183Z,58.92
2018-04-23T10:30:40.463Z,63.27
2018-04-23T10:33:09.024Z,69.40
2018-04-23T10:35:37.715Z,69.50
2018-04-23T10:38:06.064Z,71.59
2018-04-23T10:40:34.364Z,70.60
2018-04-23T10:43:02.658Z,69.88
2018-04-23T10:45:31.921Z,72.05
2018-04-23T10:48:00.783Z,62.61
2018-04-23T10:50:29.878Z,63.74
2018-04-23T10:52:59.012Z,67.71
2018-04-23T10:55:27.314Z,67.44
2018-04-23T10:57:55.754Z,69.20
2018-04-23T11:00:24.079Z,72.70
2018-04-23T11:02:52.367Z,76.12
2018-04-23T11:05:20.648Z,73.35
2018-04-23T11:07:48.983Z,74.15
2018-04-23T11:10:17.733Z,76.63
2018-04-23T11:12:46.028Z,74.81
2018-04-23T11:15:14.392Z,76.73
2018-04-23T11:17:42.755Z,75.15
2018-04-23T11:20:11.055Z,73.08
2018-04-23T11:22:39.598Z,72.75
2018-04-23T11:25:07.887Z,72.26
2018-04-23T11:27:36.944Z,72.66
2018-04-23T11:30:05.303Z,70.04
2018-04-23T11:32:34.969Z,70.88
2018-04-23T11:35:03.190Z,66.33
2018-04-23T11:37:31.511Z,67.68
2018-04-23T11:39:59.808Z,68.77
2018-04-23T11:42:28.992Z,65.17
2018-04-23T11:44:57.335Z,63.89
2018-04-23T11:47:25.623Z,63.59
2018-04-23T11:49:54.055Z,62.36
2018-04-23T11:52:22.164Z,60.71
2018-04-23T11:54:52.811Z,68.65
2018-04-23T11:57:21.706Z,69.61
2018-04-23T11:59:50.019Z,70.27
2018-04-23T12:02:18.387Z,70.07
2018-04-23T12:04:46.676Z,72.77
2018-04-23T12:07:15.767Z,73.24
2018-04-23T12:09:44.068Z,71.89
2018-04-23T12:12:12.481Z,72.12
2018-04-23T12:14:40.869Z,73.34
2018-04-23T12:17:09.123Z,72.78
2018-04-23T12:19:37.447Z,72.12
2018-04-23T12:22:05.768Z,71.17
2018-04-23T12:24:34.340Z,71.53
2018-04-23T12:27:02.628Z,72.24
2018-04-23T12:29:30.951Z,72.54
2018-04-23T12:31:59.720Z,72.90
2018-04-23T12:34:28.018Z,77.07
2018-04-23T12:36:56.335Z,81.74
2018-04-23T12:39:24.624Z,82.44
2018-04-23T12:41:52.911Z,83.08
2018-04-23T12:44:21.251Z,83.06
2018-04-23T12:46:49.547Z,82.90
2018-04-23T12:49:17.906Z,84.15
2018-04-23T12:51:47.315Z,84.13
2018-04-23T12:54:15.643Z,86.12
2018-04-23T12:56:44.071Z,85.15
2018-04-23T12:59:13.011Z,85.87
2018-04-23T13:01:41.321Z,85.31
2018-04-23T13:04:09.655Z,85.24
2018-04-23T13:06:37.934Z,84.46
2018-04-23T13:09:06.855Z,85.25
2018-04-23T13:11:35.535Z,85.34
2018-04-23T13:14:03.815Z,85.10
2018-04-23T13:16:32.105Z,85.81
2018-04-23T13:19:00.442Z,85.17
2018-04-23T13:21:28.874Z,86.65
2018-04-23T13:23:57.424Z,84.78
2018-04-23T13:26:25.712Z,83.59
2018-04-23T13:28:54.011Z,84.15
2018-04-23T13:31:22.356Z,84.82
2018-04-23T13:33:50.654Z,85.07
2018-04-23T13:36:19.147Z,83.89
2018-04-23T13:38:47.517Z,82.32
2018-04-23T13:41:15.816Z,81.19
2018-04-23T13:43:44.876Z,81.82
2018-04-23T13:46:13.196Z,80.65
2018-04-23T13:48:41.483Z,80.31
2018-04-23T13:51:10.887Z,78.41
2018-04-23T13:53:39.233Z,75.31
2018-04-23T13:56:08.853Z,73.91
2018-04-23T13:58:37.240Z,69.34
2018-04-23T14:01:06.052Z,67.47
2018-04-23T14:03:35.335Z,61.09
2018-04-23T14:06:03.682Z,51.84
2018-04-23T14:08:32.915Z,48.78
2018-04-23T14:11:01.364Z,47.33
2018-04-23T14:13:30.060Z,47.86
2018-04-23T14:15:59.214Z,48.59
2018-04-23T14:18:27.561Z,51.63
2018-04-23T14:20:56.161Z,49.88
2018-04-23T14:23:24.802Z,47.75
2018-04-23T14:25:53.107Z,47.07
2018-04-23T14:28:21.479Z,43.35
2018-04-23T14:30:50.062Z,44.28
2018-04-23T14:33:18.391Z,43.85
2018-04-23T14:35:47.283Z,44.10
2018-04-23T14:38:15.568Z,46.81
2018-04-23T14:40:43.864Z,41.30
2018-04-23T14:43:12.208Z,40.86
2018-04-23T14:45:40.976Z,40.75
2018-04-23T14:48:09.320Z,46.43
2018-04-23T14:50:37.726Z,47.12
2018-04-23T14:53:06.167Z,44.49
2018-04-23T14:55:34.458Z,44.47
2018-04-23T14:58:02.743Z,45.55
2018-04-23T15:00:31.064Z,44.40
2018-04-23T15:02:59.349Z,46.09
2018-04-23T15:05:28.108Z,44.44
2018-04-23T15:07:56.743Z,46.75
2018-04-23T15:10:25.028Z,48.84
2018-04-23T15:12:53.318Z,50.64
2018-04-23T15:15:21.796Z,50.72
2018-04-23T15:17:50.863Z,54.48
2018-04-23T15:20:19.141Z,54.90
2018-04-23T15:22:48.370Z,60.59
2018-04-23T15:25:17.752Z,59.71
2018-04-23T15:27:46.179Z,62.59
2018-04-23T15:30:14.519Z,65.07
2018-04-23T15:32:42.866Z,63.59
2018-04-23T15:35:11.824Z,62.91
2018-04-23T15:37:40.083Z,64.11
2018-04-23T15:40:08.531Z,63.76
2018-04-23T15:42:37.536Z,63.82
2018-04-23T15:45:06.344Z,63.56
2018-04-23T15:47:34.628Z,64.35
2018-04-23T15:50:02.961Z,64.81
2018-04-23T15:52:31.237Z,66.34
2018-04-23T15:54:59.527Z,67.89
2018-04-23T15:57:27.831Z,69.58
2018-04-23T15:59:56.171Z,72.61
2018-04-23T16:02:24.462Z,72.97
2018-04-23T16:04:52.751Z,73.95
2018-04-23T16:07:21.263Z,75.50
2018-04-23T16:09:49.567Z,76.56
2018-04-23T16:12:18.408Z,77.31
2018-04-23T16:14:46.696Z,79.09
2018-04-23T16:17:14.987Z,78.74
2018-04-23T16:19:43.334Z,77.69
2018-04-23T16:22:11.736Z,77.21
2018-04-23T16:24:40.850Z,77.30
2018-04-23T16:27:09.187Z,75.26
2018-04-23T16:29:37.475Z,75.21
2018-04-23T16:32:06.795Z,73.40
2018-04-23T16:34:35.120Z,73.43
2018-04-23T16:37:03.411Z,73.57
2018-04-23T16:39:31.884Z,73.33
2018-04-23T16:42:00.075Z,72.36
2018-04-23T16:44:28.653Z,72.63
2018-04-23T16:46:57.755Z,71.82
2018-04-23T16:49:26.844Z,71.92
2018-04-23T16:51:55.887Z,71.82
2018-04-23T16:54:24.640Z,71.46
2018-04-23T16:56:53.203Z,70.68
2018-04-23T16:59:22.228Z,71.38
2018-04-23T17:01:50.680Z,71.75
2018-04-23T17:04:19.691Z,71.52
2018-04-23T17:06:48.883Z,71.28
2018-04-23T17:09:17.179Z,71.83
2018-04-23T17:11:45.883Z,71.78
2018-04-23T17:14:14.299Z,71.78
2018-04-23T17:16:42.583Z,72.34
2018-04-23T17:19:11.124Z,73.04
2018-04-23T17:21:39.467Z,73.17
2018-04-23T17:24:07.758Z,73.99
2018-04-23T17:26:37.191Z,75.00
2018-04-23T17:29:05.519Z,75.36
2018-04-23T17:31:34.347Z,74.69
2018-04-23T17:34:02.695Z,76.06
2018-04-23T17:36:30.983Z,76.01
2018-04-23T17:38:59.304Z,77.11
2018-04-23T17:41:27.651Z,77.40
2018-04-23T17:43:56.451Z,77.46
2018-04-23T17:46:24.755Z,77.59
2018-04-23T17:48:53.050Z,77.60
2018-04-23T17:51:21.723Z,77.32
2018-04-23T17:53:50.022Z,77.06
2018-04-23T17:56:18.315Z,77.12
2018-04-23T17:58:46.739Z,77.17
2018-04-23T18:01:16.581Z,76.80
2018-04-23T18:03:45.127Z,76.68
2018-04-23T18:06:13.419Z,77.34
2018-04-23T18:08:41.719Z,76.69
2018-04-23T18:11:10.109Z,76.36
2018-04-23T18:13:38.676Z,76.90
2018-04-23T18:16:06.965Z,77.01
2018-04-23T18:18:35.279Z,77.39
2018-04-23T18:21:03.571Z,77.98
2018-04-23T18:23:31.915Z,77.93
2018-04-23T18:26:00.211Z,78.35
2018-04-23T18:28:29.080Z,78.33
2018-04-23T18:30:57.442Z,78.09
2018-04-23T18:33:26.404Z,78.90
2018-04-23T18:35:54.655Z,78.57
2018-04-23T18:38:23.216Z,79.62
2018-04-23T18:40:51.507Z,79.33
2018-04-23T18:43:20.555Z,81.06
2018-04-23T18:45:49.395Z,79.79
2018-04-23T18:48:17.743Z,81.72
2018-04-23T18:50:46.034Z,81.27
2018-04-23T18:53:15.107Z,80.35
2018-04-23T18:55:43.372Z,81.46
2018-04-23T18:58:11.422Z,80.73
2018-04-23T19:00:39.760Z,80.72
2018-04-23T19:03:08.287Z,80.51
2018-04-23T19:05:36.713Z,80.95
2018-04-23T19:08:05.595Z,80.14
2018-04-23T19:10:34.115Z,80.06
2018-04-23T19:13:02.971Z,80.47
2018-04-23T19:15:31.324Z,80.68
2018-04-23T19:18:00.254Z,79.92
2018-04-23T19:20:28.597Z,80.31
2018-04-23T19:22:56.930Z,80.70
2018-04-23T19:25:25.216Z,80.94
2018-04-23T19:27:54.427Z,81.68
2018-04-23T19:30:22.646Z,81.93
2018-04-23T19:32:51.540Z,82.25
2018-04-23T19:35:20.012Z,82.65
2018-04-23T19:37:49.109Z,82.91
2018-04-23T19:40:17.755Z,82.88
2018-04-23T19:42:46.150Z,82.64
2018-04-23T19:45:14.746Z,82.54
2018-04-23T19:47:43.142Z,82.61
2018-04-23T19:50:11.464Z,83.01
2018-04-23T19:52:39.755Z,82.56
2018-04-23T19:55:08.883Z,82.24
2018-04-23T19:57:37.995Z,81.96
2018-04-23T20:00:06.291Z,81.96
2018-04-23T20:02:34.599Z,82.36
2018-04-23T20:05:03.190Z,81.91
2018-04-23T20:07:31.535Z,81.64
2018-04-23T20:09:59.884Z,81.27
2018-04-23T20:12:28.403Z,80.78
2018-04-23T20:14:57.590Z,81.40
2018-04-23T20:17:26.147Z,81.76
2018-04-23T20:19:56.043Z,81.42
2018-04-23T20:22:24.415Z,81.60
2018-04-23T20:24:53.483Z,81.95
2018-04-23T20:27:21.980Z,82.22
2018-04-23T20:29:50.355Z,82.24
2018-04-23T20:32:18.671Z,82.67
2018-04-23T20:34:47.015Z,82.84
2018-04-23T20:37:15.324Z,83.45
2018-04-23T20:39:44.318Z,83.91
2018-04-23T20:42:12.660Z,83.54
2018-04-23T20:44:41.500Z,83.11
2018-04-23T20:47:10.719Z,83.70
2018-04-23T20:49:38.975Z,84.47
2018-04-23T20:52:07.291Z,85.45
2018-04-23T20:54:36.059Z,86.04
2018-04-23T20:57:05.135Z,86.54
2018-04-23T20:59:33.446Z,87.25
2018-04-23T21:02:02.579Z,87.79
2018-04-23T21:04:31.028Z,88.32
2018-04-23T21:06:59.442Z,88.99
2018-04-23T21:09:28.204Z,89.69
2018-04-23T21:11:56.553Z,90.15
2018-04-23T21:14:24.838Z,90.16
2018-04-23T21:16:53.192Z,89.75
2018-04-23T21:19:21.474Z,88.95
2018-04-23T21:21:49.906Z,87.98
2018-04-23T21:24:18.303Z,87.66
2018-04-23T21:26:46.682Z,86.86
2018-04-23T21:29:15.441Z,86.25
2018-04-23T21:31:43.775Z,85.07
2018-04-23T21:34:12.064Z,84.77
2018-04-23T21:36:41.340Z,84.34
2018-04-23T21:39:10.075Z,83.80
2018-04-23T21:41:38.859Z,84.12
2018-04-23T21:44:07.139Z,83.87
2018-04-23T21:46:35.427Z,83.76
2018-04-23T21:49:03.767Z,84.16
2018-04-23T21:51:33.568Z,84.30
2018-04-23T21:54:02.376Z,85.18
2018-04-23T21:56:31.363Z,85.87
2018-04-23T21:58:59.671Z,86.20
2018-04-23T22:01:28.188Z,86.73
2018-04-23T22:03:56.536Z,86.93
2018-04-23T22:06:24.824Z,87.43
2018-04-23T22:08:53.181Z,88.26
2018-04-23T22:11:22.171Z,88.88
2018-04-23T22:13:50.527Z,89.07
2018-04-23T22:16:18.827Z,89.47
2018-04-23T22:18:47.155Z,90.08
2018-04-23T22:21:15.441Z,90.00
2018-04-23T22:23:43.725Z,89.88
2018-04-23T22:26:12.050Z,90.06
2018-04-23T22:28:41.064Z,90.34
2018-04-23T22:31:10.014Z,90.55
2018-04-23T22:33:38.881Z,90.57
2018-04-23T22:36:08.094Z,90.45
2018-04-23T22:38:37.190Z,90.62
2018-04-23T22:41:05.552Z,90.54
2018-04-23T22:43:33.827Z,91.27
2018-04-23T22:46:02.803Z,91.32
2018-04-23T22:48:31.119Z,91.94
2018-04-23T22:50:59.402Z,91.77
2018-04-23T22:53:27.709Z,91.90
2018-04-23T22:55:56.015Z,92.17
2018-04-23T22:58:24.427Z,92.24
2018-04-23T23:00:52.759Z,92.64
2018-04-23T23:03:21.658Z,92.80
2018-04-23T23:05:49.943Z,92.71
2018-04-23T23:08:18.928Z,92.86
2018-04-23T23:10:47.211Z,93.09
2018-04-23T23:13:15.850Z,93.48
2018-04-23T23:15:44.945Z,93.14
2018-04-23T23:18:13.995Z,93.19
2018-04-23T23:20:42.544Z,93.02
2018-04-23T23:23:10.854Z,92.95
2018-04-23T23:25:39.144Z,93.00
2018-04-23T23:28:07.567Z,93.25
2018-04-23T23:30:35.855Z,93.38
2018-04-23T23:33:04.171Z,93.38
2018-04-23T23:35:32.916Z,93.87
2018-04-23T23:38:01.255Z,93.71
2018-04-23T23:40:29.628Z,93.87
2018-04-23T23:42:58.334Z,93.91
2018-04-23T23:45:27.279Z,93.71
2018-04-23T23:47:55.615Z,94.27
2018-04-23T23:50:23.928Z,94.08
2018-04-23T23:52:52.208Z,94.56
2018-04-23T23:55:20.530Z,94.73
2018-04-23T23:57:49.179Z,94.65
